createdAt,value
2022-12-25T00:01:17.108Z,21.97
2022-12-25T00:03:44.180Z,15.33
2022-12-25T00:06:11.575Z,12.70
2022-12-25T00:08:39.800Z,19.97
2022-12-25T00:11:08.937Z,16.70
2022-12-25T00:13:35.478Z,16.03
2022-12-25T00:16:10.417Z,18.37
2022-12-25T00:18:36.964Z,20.73
2022-12-25T00:21:06.097Z,11.03
2022-12-25T00:23:33.708Z,14.60
2022-12-25T00:26:05.588Z,19.10
2022-12-25T00:28:32.084Z,9.67
2022-12-25T00:30:58.761Z,12.97
2022-12-25T00:33:26.329Z,16.37
2022-12-25T00:36:00.377Z,17.50
2022-12-25T00:38:27.317Z,20.77
2022-12-25T00:40:54.314Z,14.80
2022-12-25T00:43:21.490Z,13.73
2022-12-25T00:45:56.419Z,17.60
2022-12-25T00:48:23.280Z,8.60
2022-12-25T00:50:53.780Z,21.57
2022-12-25T00:53:20.369Z,16.60
2022-12-25T00:55:59.350Z,15.90
2022-12-25T00:58:27.344Z,15.87
2022-12-25T01:00:54.467Z,19.63
2022-12-25T01:03:21.071Z,13.00
2022-12-25T01:06:00.521Z,10.30
2022-12-25T01:08:28.786Z,17.27
2022-12-25T01:10:56.820Z,11.03
2022-12-25T01:13:23.600Z,12.87
2022-12-25T01:15:52.096Z,14.23
2022-12-25T01:18:19.416Z,9.97
2022-12-25T01:20:46.089Z,11.17
2022-12-25T01:23:12.663Z,18.00
2022-12-25T01:25:39.150Z,13.97
2022-12-25T01:28:06.052Z,9.37
2022-12-25T01:30:32.964Z,10.50
2022-12-25T01:32:59.554Z,11.03
2022-12-25T01:35:26.133Z,10.27
2022-12-25T01:37:52.687Z,16.40
2022-12-25T01:40:19.361Z,9.37
2022-12-25T01:42:46.008Z,9.70
2022-12-25T01:45:41.388Z,15.00
2022-12-25T01:48:17.742Z,10.50
2022-12-25T01:50:46.584Z,9.57
2022-12-25T01:53:13.241Z,13.33
2022-12-25T01:55:40.977Z,7.20
2022-12-25T01:58:07.631Z,18.23
2022-12-25T02:00:34.412Z,7.40
2022-12-25T02:03:01.005Z,8.80
2022-12-25T02:05:30.898Z,12.33
2022-12-25T02:08:00.751Z,20.17
2022-12-25T02:10:27.436Z,9.80
2022-12-25T02:12:54.097Z,9.53
2022-12-25T02:15:23.341Z,5.17
2022-12-25T02:18:01.283Z,11.33
2022-12-25T02:21:01.959Z,8.80
2022-12-25T02:23:53.923Z,11.60
2022-12-25T02:26:47.749Z,5.87
2022-12-25T02:29:25.715Z,7.37
2022-12-25T02:32:03.113Z,12.13
2022-12-25T02:34:35.585Z,6.43
2022-12-25T02:37:07.133Z,10.37
2022-12-25T02:39:58.530Z,5.00
2022-12-25T02:43:14.828Z,6.40
2022-12-25T02:46:06.666Z,6.57
2022-12-25T02:48:55.438Z,5.07
2022-12-25T02:51:43.468Z,6.00
2022-12-25T02:54:31.653Z,11.63
2022-12-25T02:57:18.843Z,7.90
2022-12-25T03:00:06.141Z,4.40
2022-12-25T03:02:51.780Z,3.13
2022-12-25T03:05:40.544Z,5.27
2022-12-25T03:08:10.872Z,5.83
2022-12-25T03:10:58.092Z,4.87
2022-12-25T03:13:29.191Z,9.30
2022-12-25T03:16:14.679Z,4.97
2022-12-25T03:18:41.564Z,4.37
2022-12-25T03:21:27.339Z,6.47
2022-12-25T03:24:14.524Z,5.73
2022-12-25T03:26:56.428Z,5.47
2022-12-25T03:29:58.305Z,6.73
2022-12-25T03:32:48.736Z,7.37
2022-12-25T03:36:04.105Z,7.30
2022-12-25T03:38:51.170Z,3.73
2022-12-25T03:41:51.828Z,4.80
2022-12-25T03:44:55.110Z,8.23
2022-12-25T03:47:49.376Z,6.00
2022-12-25T03:50:48.975Z,5.07
2022-12-25T03:53:48.473Z,5.90
2022-12-25T03:56:36.066Z,5.33
2022-12-25T03:59:24.003Z,5.23
2022-12-25T04:02:10.071Z,4.33
2022-12-25T04:04:55.648Z,8.80
2022-12-25T04:07:40.882Z,3.33
2022-12-25T04:10:26.259Z,3.83
2022-12-25T04:13:11.290Z,2.97
2022-12-25T04:15:56.596Z,4.83
2022-12-25T04:18:41.917Z,3.73
2022-12-25T04:21:26.854Z,5.80
2022-12-25T04:24:11.924Z,5.57
2022-12-25T04:26:57.113Z,6.00
2022-12-25T04:29:42.012Z,3.73
2022-12-25T04:32:30.220Z,3.87
2022-12-25T04:35:15.468Z,9.67
2022-12-25T04:37:42.044Z,7.30
2022-12-25T04:40:09.231Z,5.97
2022-12-25T04:42:35.990Z,5.17
2022-12-25T04:45:02.617Z,5.60
2022-12-25T04:47:29.143Z,8.73
2022-12-25T04:49:55.751Z,4.10
2022-12-25T04:52:22.323Z,12.00
2022-12-25T04:54:48.949Z,5.57
2022-12-25T04:57:16.133Z,5.67
2022-12-25T04:59:42.686Z,7.53
2022-12-25T05:02:09.306Z,4.10
2022-12-25T05:04:35.921Z,6.17
2022-12-25T05:07:02.511Z,4.20
2022-12-25T05:09:29.205Z,6.63
2022-12-25T05:11:55.692Z,7.13
2022-12-25T05:14:22.182Z,7.10
2022-12-25T05:16:48.628Z,4.70
2022-12-25T05:19:15.097Z,4.30
2022-12-25T05:21:41.671Z,8.10
2022-12-25T05:24:08.261Z,5.50
2022-12-25T05:26:34.857Z,10.30
2022-12-25T05:29:01.340Z,6.10
2022-12-25T05:31:28.215Z,7.10
2022-12-25T05:33:54.828Z,10.40
2022-12-25T05:36:21.520Z,3.60
2022-12-25T05:38:48.020Z,5.07
2022-12-25T05:41:14.564Z,7.80
2022-12-25T05:43:41.056Z,8.70
2022-12-25T05:46:09.242Z,5.37
2022-12-25T05:48:38.019Z,8.30
2022-12-25T05:51:05.873Z,8.47
2022-12-25T05:53:32.522Z,7.87
2022-12-25T05:56:02.225Z,6.40
2022-12-25T05:58:29.468Z,5.93
2022-12-25T06:00:56.633Z,5.70
2022-12-25T06:03:24.044Z,8.20
2022-12-25T06:05:50.860Z,8.93
2022-12-25T06:08:17.425Z,11.70
2022-12-25T06:10:44.203Z,7.00
2022-12-25T06:13:11.263Z,10.07
2022-12-25T06:15:41.468Z,9.57
2022-12-25T06:18:08.855Z,10.13
2022-12-25T06:20:35.400Z,9.20
2022-12-25T06:23:02.204Z,9.77
2022-12-25T06:25:28.671Z,6.67
2022-12-25T06:27:55.194Z,5.03
2022-12-25T06:30:21.768Z,4.60
2022-12-25T06:32:48.387Z,7.00
2022-12-25T06:35:14.978Z,5.20
2022-12-25T06:37:41.520Z,4.57
2022-12-25T06:40:08.606Z,6.20
2022-12-25T06:42:35.053Z,3.33
2022-12-25T06:45:02.049Z,5.30
2022-12-25T06:47:28.617Z,3.57
2022-12-25T06:49:55.476Z,6.57
2022-12-25T06:52:21.963Z,3.10
2022-12-25T06:54:49.070Z,4.63
2022-12-25T06:57:15.709Z,6.40
2022-12-25T06:59:42.650Z,6.40
2022-12-25T07:02:17.329Z,3.23
2022-12-25T07:04:44.439Z,3.97
2022-12-25T07:07:11.660Z,4.10
2022-12-25T07:09:42.528Z,4.27
2022-12-25T07:12:23.601Z,4.20
2022-12-25T07:14:54.391Z,5.40
2022-12-25T07:17:21.073Z,3.40
2022-12-25T07:19:47.829Z,5.37
2022-12-25T07:22:15.604Z,3.00
2022-12-25T07:24:42.410Z,10.57
2022-12-25T07:27:09.198Z,3.53
2022-12-25T07:29:35.745Z,5.43
2022-12-25T07:32:02.390Z,3.43
2022-12-25T07:34:29.039Z,5.90
2022-12-25T07:36:55.700Z,2.23
2022-12-25T07:39:23.607Z,3.80
2022-12-25T07:41:50.232Z,2.40
2022-12-25T07:44:16.926Z,4.20
2022-12-25T07:46:43.411Z,5.47
2022-12-25T07:49:11.039Z,5.80
2022-12-25T07:51:37.686Z,4.17
2022-12-25T07:54:04.280Z,6.53
2022-12-25T07:56:30.872Z,3.77
2022-12-25T07:58:57.340Z,4.63
2022-12-25T08:01:26.680Z,2.80
2022-12-25T08:03:55.767Z,3.60
2022-12-25T08:06:25.871Z,4.07
2022-12-25T08:08:52.522Z,6.30
2022-12-25T08:11:18.982Z,10.13
2022-12-25T08:13:45.682Z,7.60
2022-12-25T08:16:12.470Z,4.03
2022-12-25T08:18:40.299Z,7.10
2022-12-25T08:21:09.471Z,6.37
2022-12-25T08:23:38.309Z,4.33
2022-12-25T08:26:06.063Z,2.87
2022-12-25T08:28:33.986Z,3.73
2022-12-25T08:31:25.740Z,5.13
2022-12-25T08:33:55.124Z,3.83
2022-12-25T08:36:22.275Z,4.53
2022-12-25T08:38:49.051Z,5.00
2022-12-25T08:41:16.179Z,9.30
2022-12-25T08:43:43.524Z,5.63
2022-12-25T08:46:10.672Z,4.83
2022-12-25T08:48:37.748Z,5.20
2022-12-25T08:51:04.989Z,5.10
2022-12-25T08:53:34.570Z,9.70
2022-12-25T08:56:04.505Z,3.73
2022-12-25T08:58:31.590Z,9.80
2022-12-25T09:00:58.338Z,6.17
2022-12-25T09:03:25.030Z,9.13
2022-12-25T09:05:53.029Z,9.17
2022-12-25T09:08:21.790Z,11.03
2022-12-25T09:10:48.998Z,3.80
2022-12-25T09:13:15.467Z,11.97
2022-12-25T09:15:42.024Z,8.57
2022-12-25T09:18:08.791Z,3.77
2022-12-25T09:20:35.421Z,6.17
2022-12-25T09:23:01.876Z,8.50
2022-12-25T09:25:29.830Z,6.70
2022-12-25T09:27:57.167Z,7.57
2022-12-25T09:30:24.017Z,6.37
2022-12-25T09:32:50.811Z,8.80
2022-12-25T09:35:18.938Z,5.60
2022-12-25T09:37:45.663Z,17.80
2022-12-25T09:40:15.615Z,19.57
2022-12-25T09:42:42.271Z,13.07
2022-12-25T09:45:15.273Z,11.00
2022-12-25T09:47:44.715Z,10.90
2022-12-25T09:50:16.064Z,11.07
2022-12-25T09:52:45.557Z,11.73
2022-12-25T09:55:20.625Z,8.70
2022-12-25T09:57:51.841Z,12.50
2022-12-25T10:00:21.718Z,8.70
2022-12-25T10:03:03.770Z,13.17
2022-12-25T10:05:30.428Z,11.70
2022-12-25T10:08:07.787Z,20.53
2022-12-25T10:10:43.495Z,9.23
2022-12-25T10:13:39.505Z,11.17
2022-12-25T10:16:32.176Z,10.97
2022-12-25T10:19:05.847Z,11.43
2022-12-25T10:21:32.698Z,10.10
2022-12-25T10:23:59.259Z,12.70
2022-12-25T10:26:26.823Z,8.83
2022-12-25T10:28:58.722Z,13.20
2022-12-25T10:31:27.786Z,15.03
2022-12-25T10:33:54.610Z,11.23
2022-12-25T10:36:24.437Z,13.93
2022-12-25T10:38:51.757Z,13.60
2022-12-25T10:41:22.611Z,35.13
2022-12-25T10:43:51.472Z,32.30
2022-12-25T10:46:18.736Z,37.93
2022-12-25T10:48:48.619Z,28.00
2022-12-25T10:51:26.933Z,20.17
2022-12-25T10:53:53.544Z,12.87
2022-12-25T10:56:20.221Z,13.77
2022-12-25T10:58:46.736Z,9.13
2022-12-25T11:01:13.592Z,11.37
2022-12-25T11:03:44.671Z,7.30
2022-12-25T11:06:28.553Z,8.43
2022-12-25T11:08:57.934Z,10.40
2022-12-25T11:11:25.533Z,8.33
2022-12-25T11:13:55.112Z,15.20
2022-12-25T11:16:35.414Z,12.40
2022-12-25T11:19:02.520Z,15.17
2022-12-25T11:21:32.210Z,14.30
2022-12-25T11:24:06.949Z,12.67
2022-12-25T11:26:48.300Z,20.90
2022-12-25T11:29:30.132Z,16.07
2022-12-25T11:31:58.860Z,15.13
2022-12-25T11:34:31.317Z,20.10
2022-12-25T11:36:59.046Z,23.57
2022-12-25T11:39:34.629Z,20.53
2022-12-25T11:42:18.455Z,17.40
2022-12-25T11:44:52.672Z,24.40
2022-12-25T11:47:24.473Z,19.40
2022-12-25T11:50:00.150Z,16.47
2022-12-25T11:52:30.200Z,18.33
2022-12-25T11:55:08.766Z,9.63
2022-12-25T11:57:35.689Z,11.00
2022-12-25T12:00:06.867Z,10.37
2022-12-25T12:02:44.554Z,9.33
2022-12-25T12:05:26.669Z,11.10
2022-12-25T12:08:01.732Z,8.90
2022-12-25T12:10:33.661Z,12.47
2022-12-25T12:13:19.095Z,8.30
2022-12-25T12:15:47.457Z,8.20
2022-12-25T12:18:26.200Z,9.40
2022-12-25T12:21:07.785Z,7.13
2022-12-25T12:23:50.169Z,7.37
2022-12-25T12:26:20.347Z,10.83
2022-12-25T12:28:47.864Z,6.27
2022-12-25T12:31:14.958Z,6.37
2022-12-25T12:33:47.744Z,5.90
2022-12-25T12:36:14.622Z,5.33
2022-12-25T12:38:43.476Z,6.70
2022-12-25T12:41:12.359Z,5.17
2022-12-25T12:43:42.892Z,8.50
2022-12-25T12:46:30.898Z,14.40
2022-12-25T12:49:19.603Z,5.97
2022-12-25T12:51:46.468Z,6.20
2022-12-25T12:54:20.852Z,5.77
2022-12-25T12:57:07.135Z,5.60
2022-12-25T12:59:46.722Z,5.43
2022-12-25T13:02:52.341Z,7.00
2022-12-25T13:05:20.650Z,6.30
2022-12-25T13:08:02.426Z,6.23
2022-12-25T13:10:37.775Z,9.93
2022-12-25T13:13:17.388Z,9.53
2022-12-25T13:15:46.486Z,5.50
2022-12-25T13:18:13.566Z,6.63
2022-12-25T13:20:40.009Z,5.77
2022-12-25T13:23:26.324Z,5.33
2022-12-25T13:25:58.036Z,6.63
2022-12-25T13:28:33.386Z,6.13
2022-12-25T13:31:06.757Z,5.40
2022-12-25T13:33:36.301Z,4.80
2022-12-25T13:36:04.918Z,4.20
2022-12-25T13:38:31.651Z,5.03
2022-12-25T13:41:17.854Z,5.77
2022-12-25T13:43:45.044Z,4.57
2022-12-25T13:46:14.329Z,7.33
2022-12-25T13:48:42.115Z,5.37
2022-12-25T13:51:14.668Z,5.07
2022-12-25T13:53:41.178Z,7.00
2022-12-25T13:56:13.540Z,5.70
2022-12-25T13:58:40.256Z,7.27
2022-12-25T14:01:07.626Z,7.07
2022-12-25T14:03:46.087Z,7.77
2022-12-25T14:06:28.941Z,6.70
2022-12-25T14:08:56.861Z,8.37
2022-12-25T14:11:25.049Z,15.70
2022-12-25T14:13:54.803Z,21.80
2022-12-25T14:16:22.015Z,22.13
2022-12-25T14:18:59.817Z,16.90
2022-12-25T14:21:35.358Z,17.70
2022-12-25T14:24:02.098Z,16.07
2022-12-25T14:26:32.300Z,14.80
2022-12-25T14:29:04.976Z,14.73
2022-12-25T14:31:32.388Z,16.17
2022-12-25T14:34:00.365Z,15.03
2022-12-25T14:36:27.691Z,15.10
2022-12-25T14:38:58.965Z,18.23
2022-12-25T14:41:37.889Z,17.33
2022-12-25T14:44:27.644Z,13.07
2022-12-25T14:47:06.704Z,10.90
2022-12-25T14:49:33.456Z,14.27
2022-12-25T14:52:00.179Z,12.90
2022-12-25T14:54:26.766Z,14.77
2022-12-25T14:56:56.076Z,14.33
2022-12-25T14:59:26.522Z,14.67
2022-12-25T15:01:57.345Z,14.60
2022-12-25T15:04:25.224Z,16.13
2022-12-25T15:06:57.216Z,17.90
2022-12-25T15:09:23.947Z,16.73
2022-12-25T15:11:51.903Z,15.00
2022-12-25T15:14:18.651Z,17.40
2022-12-25T15:16:47.570Z,22.30
2022-12-25T15:19:26.461Z,20.40
2022-12-25T15:21:55.526Z,23.93
2022-12-25T15:24:22.811Z,24.50
2022-12-25T15:26:49.621Z,25.20
2022-12-25T15:29:16.369Z,22.83
2022-12-25T15:31:43.064Z,23.97
2022-12-25T15:34:17.740Z,23.27
2022-12-25T15:36:44.191Z,26.23
2022-12-25T15:39:10.685Z,23.10
2022-12-25T15:41:57.140Z,32.47
2022-12-25T15:44:24.551Z,32.27
2022-12-25T15:46:51.743Z,34.67
2022-12-25T15:49:18.589Z,30.23
2022-12-25T15:51:45.724Z,27.83
2022-12-25T15:54:12.224Z,24.03
2022-12-25T15:56:41.097Z,33.93
2022-12-25T15:59:10.051Z,30.77
2022-12-25T16:01:42.279Z,22.90
2022-12-25T16:04:10.416Z,22.77
2022-12-25T16:06:37.262Z,16.97
2022-12-25T16:09:04.316Z,20.00
2022-12-25T16:11:30.836Z,22.00
2022-12-25T16:13:57.659Z,21.33
2022-12-25T16:16:24.261Z,19.73
2022-12-25T16:18:51.247Z,15.67
2022-12-25T16:21:19.613Z,16.10
2022-12-25T16:23:46.472Z,17.20
2022-12-25T16:26:13.051Z,20.60
2022-12-25T16:28:39.577Z,15.60
2022-12-25T16:31:06.285Z,16.60
2022-12-25T16:33:33.544Z,18.53
2022-12-25T16:36:00.312Z,17.00
2022-12-25T16:38:27.145Z,14.93
2022-12-25T16:40:58.939Z,12.10
2022-12-25T16:43:26.729Z,13.20
2022-12-25T16:45:53.621Z,9.00
2022-12-25T16:48:20.522Z,10.57
2022-12-25T16:50:47.079Z,12.50
2022-12-25T16:53:13.721Z,11.37
2022-12-25T16:55:40.233Z,10.87
2022-12-25T16:58:07.109Z,10.83
2022-12-25T17:00:34.791Z,9.17
2022-12-25T17:03:01.826Z,13.60
2022-12-25T17:05:28.881Z,9.53
2022-12-25T17:07:55.449Z,11.40
2022-12-25T17:10:22.276Z,9.13
2022-12-25T17:12:48.885Z,9.23
2022-12-25T17:15:15.535Z,9.23
2022-12-25T17:17:42.157Z,8.20
2022-12-25T17:20:09.992Z,8.03
2022-12-25T17:22:36.677Z,9.40
2022-12-25T17:25:03.457Z,7.60
2022-12-25T17:27:30.048Z,11.33
2022-12-25T17:29:56.686Z,12.80
2022-12-25T17:32:23.181Z,10.77
2022-12-25T17:34:49.902Z,9.43
2022-12-25T17:37:16.761Z,13.07
2022-12-25T17:39:43.264Z,8.13
2022-12-25T17:42:09.744Z,7.30
2022-12-25T17:44:36.431Z,9.00
2022-12-25T17:47:03.520Z,8.60
2022-12-25T17:49:31.500Z,6.13
2022-12-25T17:51:58.054Z,5.90
2022-12-25T17:54:25.209Z,5.83
2022-12-25T17:56:51.741Z,5.77
2022-12-25T17:59:19.147Z,6.20
2022-12-25T18:01:47.180Z,7.57
2022-12-25T18:04:14.184Z,4.97
2022-12-25T18:06:40.994Z,6.37
2022-12-25T18:09:07.911Z,7.40
2022-12-25T18:11:38.820Z,8.10
2022-12-25T18:14:06.405Z,6.30
2022-12-25T18:16:35.917Z,9.33
2022-12-25T18:19:02.644Z,4.97
2022-12-25T18:21:29.923Z,5.27
2022-12-25T18:23:56.616Z,4.63
2022-12-25T18:26:26.468Z,5.80
2022-12-25T18:28:53.195Z,5.40
2022-12-25T18:31:22.645Z,5.50
2022-12-25T18:33:50.257Z,8.60
2022-12-25T18:36:20.220Z,5.63
2022-12-25T18:38:48.208Z,5.40
2022-12-25T18:41:15.410Z,6.50
2022-12-25T18:43:53.736Z,5.20
2022-12-25T18:46:25.131Z,7.27
2022-12-25T18:48:53.656Z,8.77
2022-12-25T18:51:20.429Z,6.93
2022-12-25T18:53:47.081Z,8.00
2022-12-25T18:56:17.166Z,8.03
2022-12-25T18:58:43.911Z,6.63
2022-12-25T19:01:11.906Z,6.87
2022-12-25T19:03:38.868Z,6.80
2022-12-25T19:06:05.746Z,6.27
2022-12-25T19:08:32.368Z,8.90
2022-12-25T19:10:59.064Z,8.17
2022-12-25T19:13:25.756Z,7.47
2022-12-25T19:15:52.615Z,7.60
2022-12-25T19:18:19.494Z,6.60
2022-12-25T19:20:46.054Z,6.17
2022-12-25T19:23:12.796Z,9.30
2022-12-25T19:25:39.984Z,6.43
2022-12-25T19:28:09.445Z,6.47
2022-12-25T19:30:38.073Z,7.70
2022-12-25T19:33:06.520Z,7.20
2022-12-25T19:35:34.527Z,7.37
2022-12-25T19:38:01.092Z,6.87
2022-12-25T19:40:27.665Z,6.80
2022-12-25T19:42:54.379Z,11.70
2022-12-25T19:45:21.829Z,6.17
2022-12-25T19:47:48.407Z,9.47
2022-12-25T19:50:15.043Z,6.37
2022-12-25T19:52:41.520Z,8.13
2022-12-25T19:55:11.498Z,8.47
2022-12-25T19:57:40.027Z,7.83
2022-12-25T20:00:07.412Z,7.30
2022-12-25T20:02:34.132Z,7.83
2022-12-25T20:05:00.714Z,6.70
2022-12-25T20:07:27.724Z,7.20
2022-12-25T20:09:54.233Z,7.63
2022-12-25T20:12:20.711Z,8.17
2022-12-25T20:14:47.646Z,7.33
2022-12-25T20:17:16.103Z,7.33
2022-12-25T20:19:42.909Z,7.47
2022-12-25T20:22:12.492Z,7.03
2022-12-25T20:24:41.213Z,7.27
2022-12-25T20:27:07.798Z,6.83
2022-12-25T20:29:34.362Z,7.17
2022-12-25T20:32:00.997Z,11.30
2022-12-25T20:34:27.492Z,7.63
2022-12-25T20:36:54.049Z,7.60
2022-12-25T20:39:20.538Z,7.10
2022-12-25T20:41:47.572Z,12.23
2022-12-25T20:44:14.454Z,8.93
2022-12-25T20:46:41.231Z,7.57
2022-12-25T20:49:07.830Z,10.33
2022-12-25T20:51:34.427Z,7.63
2022-12-25T20:54:01.613Z,8.53
2022-12-25T20:56:29.940Z,9.90
2022-12-25T20:59:00.073Z,8.20
2022-12-25T21:01:28.507Z,8.80
2022-12-25T21:03:55.476Z,10.63
2022-12-25T21:06:22.660Z,8.40
2022-12-25T21:08:49.315Z,11.23
2022-12-25T21:11:16.784Z,8.83
2022-12-25T21:13:45.382Z,9.13
2022-12-25T21:16:18.592Z,10.23
2022-12-25T21:18:46.212Z,9.13
2022-12-25T21:21:12.762Z,9.13
2022-12-25T21:23:39.938Z,10.77
2022-12-25T21:26:11.811Z,10.67
2022-12-25T21:28:38.788Z,9.73
2022-12-25T21:31:06.061Z,9.17
2022-12-25T21:33:51.489Z,11.30
2022-12-25T21:36:29.248Z,9.23
2022-12-25T21:38:59.706Z,10.37
2022-12-25T21:41:27.722Z,14.07
2022-12-25T21:43:54.822Z,9.80
2022-12-25T21:46:21.678Z,9.97
2022-12-25T21:48:48.697Z,10.07
2022-12-25T21:51:36.322Z,11.57
2022-12-25T21:54:04.077Z,13.13
2022-12-25T21:56:31.922Z,9.77
2022-12-25T21:59:02.960Z,10.00
2022-12-25T22:01:30.251Z,10.43
2022-12-25T22:04:01.443Z,10.57
2022-12-25T22:06:46.673Z,11.70
2022-12-25T22:09:13.188Z,13.70
2022-12-25T22:11:58.490Z,8.50
2022-12-25T22:14:51.355Z,13.37
2022-12-25T22:17:47.532Z,11.93
2022-12-25T22:20:21.578Z,23.20
2022-12-25T22:22:48.748Z,10.93
2022-12-25T22:25:17.152Z,12.57
2022-12-25T22:27:45.111Z,16.03
2022-12-25T22:30:20.375Z,14.93
2022-12-25T22:32:47.047Z,19.93
2022-12-25T22:35:14.128Z,16.30
2022-12-25T22:37:41.838Z,14.80
2022-12-25T22:40:11.858Z,14.37
2022-12-25T22:42:38.395Z,12.37
2022-12-25T22:45:05.607Z,14.17
2022-12-25T22:47:32.301Z,11.87
2022-12-25T22:49:58.798Z,10.40
2022-12-25T22:52:25.447Z,9.43
2022-12-25T22:54:52.316Z,9.80
2022-12-25T22:57:18.849Z,10.20
2022-12-25T22:59:45.729Z,11.43
2022-12-25T23:02:12.468Z,10.77
2022-12-25T23:04:39.208Z,9.30
2022-12-25T23:07:06.702Z,8.90
2022-12-25T23:09:36.569Z,9.30
2022-12-25T23:12:03.221Z,10.40
2022-12-25T23:14:38.786Z,8.10
2022-12-25T23:17:07.827Z,7.27
2022-12-25T23:19:52.944Z,7.80
2022-12-25T23:22:38.125Z,8.70
2022-12-25T23:25:33.087Z,7.20
2022-12-25T23:27:59.558Z,7.57
2022-12-25T23:30:26.576Z,5.43
2022-12-25T23:32:53.245Z,7.80
2022-12-25T23:35:19.881Z,5.57
2022-12-25T23:37:47.086Z,5.33
2022-12-25T23:40:13.827Z,5.73
2022-12-25T23:42:40.648Z,5.47
2022-12-25T23:45:07.998Z,4.60
2022-12-25T23:47:34.596Z,4.53
2022-12-25T23:50:01.086Z,4.90
2022-12-25T23:52:27.796Z,5.20
2022-12-25T23:54:54.276Z,4.10
2022-12-25T23:57:21.105Z,3.37
2022-12-25T23:59:47.864Z,4.50
